Time;durP1;ratioP1;P1;durP2;ratioP2;P2;SDS_P1;SDS_P2;PMS_P1;PMS_P2;Temp;Humidity;BMP_temperature;BMP_pressure;BME280_temperature;BME280_humidity;BME280_pressure;Samples;Min_cycle;Max_cycle;Signal;HPM_P1;HPM_P2
2024/02/14 00:01:41;;;;;;;15.27;2.85;;;;;;;;;;4741340;30;20064;-84
2024/02/14 00:04:07;;;;;;;4.28;1.83;;;;;;;;;;4732421;30;20044;-83
2024/02/14 00:06:37;;;;;;;7.32;1.85;;;;;;;;;;4736947;30;20766;-83
2024/02/14 00:09:03;;;;;;;16.00;4.25;;;;;;;;;;4746594;30;20261;-83
2024/02/14 00:11:29;;;;;;;7.47;2.05;;;;;;;;;;4734251;30;20053;-84
2024/02/14 00:14:03;;;;;;;9.07;2.75;;;;;;;;;;4730025;30;20089;-83
2024/02/14 00:16:33;;;;;;;8.65;2.20;;;;;;;;;;4731354;30;20765;-84
2024/02/14 00:18:59;;;;;;;5.00;1.67;;;;;;;;;;4730771;30;20393;-84
2024/02/14 00:21:25;;;;;;;3.88;0.82;;;;;;;;;;4733260;30;20152;-84
2024/02/14 00:23:51;;;;;;;2.15;0.70;;;;;;;;;;4746909;30;20080;-84
2024/02/14 00:26:17;;;;;;;2.40;0.88;;;;;;;;;;4738849;30;20041;-84
2024/02/14 00:28:44;;;;;;;3.03;0.93;;;;;;;;;;4746337;30;20124;-83
2024/02/14 00:31:10;;;;;;;5.25;0.60;;;;;;;;;;4741218;30;20060;-84
2024/02/14 00:33:44;;;;;;;3.40;1.30;;;;;;;;;;4731333;30;20062;-83
2024/02/14 00:36:10;;;;;;;3.83;0.90;;;;;;;;;;4740770;30;20052;-83
2024/02/14 00:38:36;;;;;;;3.25;0.73;;;;;;;;;;4736362;30;20048;-83
2024/02/14 00:41:02;;;;;;;14.70;4.82;;;;;;;;;;4742950;30;20044;-83
2024/02/14 00:43:28;;;;;;;4.65;2.30;;;;;;;;;;4729533;30;20438;-83
2024/02/14 00:45:56;;;;;;;5.10;1.40;;;;;;;;;;4742823;30;20496;-83
2024/02/14 00:48:22;;;;;;;3.72;0.80;;;;;;;;;;4742907;30;20144;-82
2024/02/14 00:50:48;;;;;;;2.65;0.30;;;;;;;;;;4737784;30;20041;-83
2024/02/14 00:53:17;;;;;;;0.90;0.30;;;;;;;;;;4739069;30;20055;-84
2024/02/14 00:55:51;;;;;;;10.35;1.20;;;;;;;;;;4724315;30;20480;-81
2024/02/14 00:58:22;;;;;;;4.43;1.20;;;;;;;;;;4728957;30;21227;-84
2024/02/14 01:00:55;;;;;;;5.22;0.80;;;;;;;;;;4733874;30;20508;-84
2024/02/14 01:03:29;;;;;;;2.55;1.13;;;;;;;;;;4737280;30;20040;-84
2024/02/14 01:05:57;;;;;;;1.88;0.60;;;;;;;;;;4738223;30;20052;-82
2024/02/14 01:08:32;;;;;;;3.33;1.02;;;;;;;;;;4736109;30;20056;-84
2024/02/14 01:11:00;;;;;;;9.40;1.40;;;;;;;;;;4744361;30;20060;-84
2024/02/14 01:13:26;;;;;;;1.35;0.50;;;;;;;;;;4741708;30;20665;-84
2024/02/14 01:15:58;;;;;;;2.38;0.73;;;;;;;;;;4733260;30;20491;-85
2024/02/14 01:18:24;;;;;;;3.50;1.00;;;;;;;;;;4744353;30;20080;-84
2024/02/14 01:20:50;;;;;;;3.33;0.63;;;;;;;;;;4748671;30;20059;-84
2024/02/14 01:23:19;;;;;;;1.77;0.77;;;;;;;;;;4737239;30;20141;-83
2024/02/14 01:25:45;;;;;;;1.55;0.55;;;;;;;;;;4744370;30;20493;-82
2024/02/14 01:28:11;;;;;;;2.05;0.63;;;;;;;;;;4728151;30;20048;-83
2024/02/14 01:30:37;;;;;;;1.77;0.70;;;;;;;;;;4732763;30;20513;-83
2024/02/14 01:33:04;;;;;;;4.45;0.90;;;;;;;;;;4748334;30;20079;-82
2024/02/14 01:35:30;;;;;;;1.88;0.60;;;;;;;;;;4744467;30;20064;-82
2024/02/14 01:37:57;;;;;;;2.38;0.60;;;;;;;;;;4747355;30;20052;-82
2024/02/14 01:40:23;;;;;;;4.68;0.95;;;;;;;;;;4735751;30;20140;-82
2024/02/14 01:42:49;;;;;;;6.60;1.50;;;;;;;;;;4736026;30;20079;-82
2024/02/14 01:45:15;;;;;;;8.75;2.58;;;;;;;;;;4738407;30;20464;-82
2024/02/14 01:47:42;;;;;;;3.17;0.95;;;;;;;;;;4740178;30;20052;-82
2024/02/14 01:50:09;;;;;;;1.67;0.70;;;;;;;;;;4751746;30;20052;-82
2024/02/14 01:52:35;;;;;;;2.90;0.80;;;;;;;;;;4740737;30;20128;-82
2024/02/14 01:55:03;;;;;;;1.48;0.75;;;;;;;;;;4737476;30;20563;-82
2024/02/14 01:57:29;;;;;;;3.65;0.77;;;;;;;;;;4734056;30;20158;-83
2024/02/14 01:59:57;;;;;;;3.72;0.60;;;;;;;;;;4735147;30;20897;-83
2024/02/14 02:02:24;;;;;;;4.18;0.47;;;;;;;;;;4730430;30;20574;-83
2024/02/14 02:04:51;;;;;;;5.30;1.05;;;;;;;;;;4733600;30;20070;-82
2024/02/14 02:07:19;;;;;;;3.03;1.15;;;;;;;;;;4731566;30;20040;-82
2024/02/14 02:09:45;;;;;;;0.82;0.20;;;;;;;;;;4743436;30;20137;-82
2024/02/14 02:12:11;;;;;;;1.63;0.45;;;;;;;;;;4730715;30;20139;-82
2024/02/14 02:14:37;;;;;;;2.80;0.43;;;;;;;;;;4721914;30;20135;-82
2024/02/14 02:17:07;;;;;;;1.92;0.43;;;;;;;;;;4738142;30;20063;-82
2024/02/14 02:19:33;;;;;;;1.48;0.47;;;;;;;;;;4751269;30;20052;-82
2024/02/14 02:22:00;;;;;;;1.40;0.60;;;;;;;;;;4740705;30;20067;-82
2024/02/14 02:24:26;;;;;;;1.55;0.43;;;;;;;;;;4741341;30;20472;-82
2024/02/14 02:26:52;;;;;;;0.85;0.45;;;;;;;;;;4737969;30;20050;-82
2024/02/14 02:29:19;;;;;;;7.95;0.90;;;;;;;;;;4741848;30;20079;-82
2024/02/14 02:31:45;;;;;;;1.63;0.38;;;;;;;;;;4732363;30;20094;-83
2024/02/14 02:34:11;;;;;;;1.27;0.40;;;;;;;;;;4730006;30;20044;-83
2024/02/14 02:36:39;;;;;;;1.73;0.38;;;;;;;;;;4726864;30;20059;-82
2024/02/14 02:39:05;;;;;;;1.15;0.55;;;;;;;;;;4734378;30;20048;-82
2024/02/14 02:41:34;;;;;;;1.05;0.20;;;;;;;;;;4743270;30;20109;-82
2024/02/14 02:44:01;;;;;;;1.63;0.52;;;;;;;;;;4733841;30;20044;-82
2024/02/14 02:46:27;;;;;;;2.75;0.50;;;;;;;;;;4746708;30;20131;-81
2024/02/14 02:48:58;;;;;;;0.55;0.20;;;;;;;;;;4731871;30;20052;-82
2024/02/14 02:51:24;;;;;;;0.90;0.28;;;;;;;;;;4728402;30;20522;-82
2024/02/14 02:53:51;;;;;;;1.00;0.40;;;;;;;;;;4740947;30;20045;-82
2024/02/14 02:56:18;;;;;;;1.75;0.30;;;;;;;;;;4733505;30;20056;-82
2024/02/14 02:58:44;;;;;;;1.58;0.50;;;;;;;;;;4743612;30;20065;-82
2024/02/14 03:01:11;;;;;;;2.22;0.43;;;;;;;;;;4718544;30;20067;-82
2024/02/14 03:03:38;;;;;;;1.33;0.63;;;;;;;;;;4747146;30;20055;-82
2024/02/14 03:06:05;;;;;;;3.30;0.40;;;;;;;;;;4722419;30;20052;-82
2024/02/14 03:08:34;;;;;;;2.72;1.13;;;;;;;;;;4732140;30;20661;-82
2024/02/14 03:11:03;;;;;;;2.95;0.50;;;;;;;;;;4732590;30;20045;-82
2024/02/14 03:13:29;;;;;;;2.58;0.30;;;;;;;;;;4742817;30;20615;-83
2024/02/14 03:15:57;;;;;;;4.57;0.82;;;;;;;;;;4730988;30;20075;-83
2024/02/14 03:18:23;;;;;;;1.20;0.25;;;;;;;;;;4723496;30;20045;-82
2024/02/14 03:20:49;;;;;;;0.90;0.28;;;;;;;;;;4749804;30;20051;-82
2024/02/14 03:23:16;;;;;;;1.48;0.50;;;;;;;;;;4731656;30;20419;-83
2024/02/14 03:25:42;;;;;;;2.65;0.47;;;;;;;;;;4731174;30;20179;-79
2024/02/14 03:28:08;;;;;;;0.70;0.30;;;;;;;;;;4727557;30;20044;-82
2024/02/14 03:30:35;;;;;;;1.50;0.45;;;;;;;;;;4736389;30;20039;-82
2024/02/14 03:33:01;;;;;;;1.10;0.30;;;;;;;;;;4725184;30;20491;-82
2024/02/14 03:35:27;;;;;;;0.82;0.15;;;;;;;;;;4740957;30;20773;-83
2024/02/14 03:37:53;;;;;;;1.35;0.28;;;;;;;;;;4726263;30;20109;-82
2024/02/14 03:40:22;;;;;;;1.67;0.40;;;;;;;;;;4733383;30;20055;-80
2024/02/14 03:42:48;;;;;;;2.15;0.70;;;;;;;;;;4746996;30;20178;-83
2024/02/14 03:45:14;;;;;;;2.35;0.52;;;;;;;;;;4740974;30;20053;-82
2024/02/14 03:47:41;;;;;;;1.27;0.55;;;;;;;;;;4729782;30;20042;-82
2024/02/14 03:50:08;;;;;;;4.78;0.40;;;;;;;;;;4749632;30;20036;-82
2024/02/14 03:52:34;;;;;;;1.63;0.30;;;;;;;;;;4730350;30;20147;-82
2024/02/14 03:55:00;;;;;;;0.20;0.10;;;;;;;;;;4741783;30;20055;-82
2024/02/14 03:57:30;;;;;;;1.02;0.28;;;;;;;;;;4744210;30;20056;-82
2024/02/14 03:59:56;;;;;;;0.17;0.03;;;;;;;;;;4749061;30;20068;-82
2024/02/14 04:02:23;;;;;;;2.70;0.47;;;;;;;;;;4719290;30;20072;-82
2024/02/14 04:04:49;;;;;;;0.98;0.20;;;;;;;;;;4737589;30;20904;-82
2024/02/14 04:07:15;;;;;;;1.27;0.20;;;;;;;;;;4719715;30;20164;-82
2024/02/14 04:09:42;;;;;;;0.38;0.20;;;;;;;;;;4735608;30;20381;-82
2024/02/14 04:12:10;;;;;;;1.33;0.30;;;;;;;;;;4735553;30;20055;-82
2024/02/14 04:14:36;;;;;;;0.77;0.20;;;;;;;;;;4744865;30;20090;-82
2024/02/14 04:17:02;;;;;;;0.93;0.43;;;;;;;;;;4749656;30;20075;-83
2024/02/14 04:19:28;;;;;;;1.67;0.35;;;;;;;;;;4728096;30;20040;-83
2024/02/14 04:21:54;;;;;;;0.40;0.10;;;;;;;;;;4753058;30;20048;-83
2024/02/14 04:24:20;;;;;;;0.20;0.10;;;;;;;;;;4732673;30;20263;-83
2024/02/14 04:26:48;;;;;;;1.08;0.43;;;;;;;;;;4730456;30;20183;-83
2024/02/14 04:29:14;;;;;;;2.05;0.20;;;;;;;;;;4743952;30;20071;-83
2024/02/14 04:31:42;;;;;;;1.27;0.50;;;;;;;;;;4736378;30;20145;-83
2024/02/14 04:34:10;;;;;;;0.80;0.40;;;;;;;;;;4728222;30;20073;-84
2024/02/14 04:36:36;;;;;;;3.85;0.30;;;;;;;;;;4744374;30;20052;-83
2024/02/14 04:39:03;;;;;;;2.15;0.55;;;;;;;;;;4733520;30;20059;-82
2024/02/14 04:41:29;;;;;;;5.78;1.00;;;;;;;;;;4735112;30;20062;-82
2024/02/14 04:43:58;;;;;;;5.20;0.88;;;;;;;;;;4741924;30;20044;-83
2024/02/14 04:46:24;;;;;;;2.60;0.40;;;;;;;;;;4727630;30;20960;-83
2024/02/14 04:48:50;;;;;;;2.05;0.20;;;;;;;;;;4719641;30;20669;-84
2024/02/14 04:51:16;;;;;;;3.30;0.82;;;;;;;;;;4726243;30;20048;-83
2024/02/14 04:53:42;;;;;;;1.10;0.40;;;;;;;;;;4732963;30;20136;-84
2024/02/14 04:56:08;;;;;;;3.53;0.93;;;;;;;;;;4743383;30;20052;-83
2024/02/14 04:58:36;;;;;;;5.35;1.15;;;;;;;;;;4732039;30;20582;-83
2024/02/14 05:01:02;;;;;;;2.40;0.88;;;;;;;;;;4749933;30;20077;-84
2024/02/14 05:03:31;;;;;;;4.60;1.23;;;;;;;;;;4729115;30;20061;-84
2024/02/14 05:05:58;;;;;;;6.05;1.38;;;;;;;;;;4735124;30;20052;-83
2024/02/14 05:08:25;;;;;;;2.15;0.40;;;;;;;;;;4734605;30;20044;-83
2024/02/14 05:10:51;;;;;;;2.65;0.47;;;;;;;;;;4751576;30;20043;-83
2024/02/14 05:13:17;;;;;;;2.20;0.60;;;;;;;;;;4729237;30;20044;-83
2024/02/14 05:15:43;;;;;;;1.65;0.35;;;;;;;;;;4740371;30;20060;-83
2024/02/14 05:18:09;;;;;;;0.47;0.32;;;;;;;;;;4733291;30;20484;-83
2024/02/14 05:20:35;;;;;;;1.75;0.30;;;;;;;;;;4727748;30;20055;-83
2024/02/14 05:23:01;;;;;;;5.68;0.45;;;;;;;;;;4745366;30;20052;-83
2024/02/14 05:25:29;;;;;;;1.60;0.50;;;;;;;;;;4721477;30;20378;-83
2024/02/14 05:27:55;;;;;;;5.22;1.35;;;;;;;;;;4739388;30;20094;-84
2024/02/14 05:30:21;;;;;;;1.08;0.40;;;;;;;;;;4735183;30;20052;-83
2024/02/14 05:32:47;;;;;;;2.45;0.75;;;;;;;;;;4730608;30;20495;-83
2024/02/14 05:35:13;;;;;;;3.38;0.93;;;;;;;;;;4725866;30;20151;-83
2024/02/14 05:37:42;;;;;;;1.80;0.65;;;;;;;;;;4728506;30;20139;-83
2024/02/14 05:40:09;;;;;;;2.45;0.95;;;;;;;;;;4723388;30;20450;-83
2024/02/14 05:42:35;;;;;;;2.17;0.40;;;;;;;;;;4742374;30;20106;-83
2024/02/14 05:45:02;;;;;;;3.42;0.43;;;;;;;;;;4743373;30;20484;-83
2024/02/14 05:47:28;;;;;;;2.45;0.93;;;;;;;;;;4750103;30;20044;-83
2024/02/14 05:49:54;;;;;;;3.47;0.60;;;;;;;;;;4735378;30;20040;-83
2024/02/14 05:52:21;;;;;;;1.60;0.40;;;;;;;;;;4734316;30;20056;-83
2024/02/14 05:54:47;;;;;;;3.08;0.77;;;;;;;;;;4735168;30;20566;-83
2024/02/14 05:57:16;;;;;;;2.40;0.60;;;;;;;;;;4727639;30;20872;-83
2024/02/14 05:59:42;;;;;;;2.28;0.98;;;;;;;;;;4727238;30;20421;-83
2024/02/14 06:02:09;;;;;;;3.20;0.22;;;;;;;;;;4728536;30;20064;-82
2024/02/14 06:04:35;;;;;;;0.95;0.40;;;;;;;;;;4717371;30;20075;-82
2024/02/14 06:07:02;;;;;;;2.75;0.88;;;;;;;;;;4743167;30;20059;-82
2024/02/14 06:09:29;;;;;;;3.50;0.82;;;;;;;;;;4749620;30;20067;-82
2024/02/14 06:11:55;;;;;;;6.13;1.23;;;;;;;;;;4716832;30;20048;-82
2024/02/14 06:14:21;;;;;;;3.70;0.98;;;;;;;;;;4731671;30;20475;-82
2024/02/14 06:16:47;;;;;;;3.03;0.55;;;;;;;;;;4747922;30;20048;-83
2024/02/14 06:19:16;;;;;;;5.18;1.10;;;;;;;;;;4747260;30;20119;-84
2024/02/14 06:21:42;;;;;;;2.38;0.90;;;;;;;;;;4728170;30;20044;-83
2024/02/14 06:24:09;;;;;;;3.00;0.57;;;;;;;;;;4722683;30;20182;-82
2024/02/14 06:26:35;;;;;;;8.20;1.05;;;;;;;;;;4733757;30;20097;-84
2024/02/14 06:29:02;;;;;;;1.65;0.43;;;;;;;;;;4733338;30;20106;-85
2024/02/14 06:31:28;;;;;;;2.08;0.52;;;;;;;;;;4732205;30;21611;-81
2024/02/14 06:33:54;;;;;;;4.43;1.00;;;;;;;;;;4745071;30;20078;-83
2024/02/14 06:36:20;;;;;;;6.53;0.90;;;;;;;;;;4725418;30;20055;-81
2024/02/14 06:38:46;;;;;;;3.20;0.93;;;;;;;;;;4742641;30;20985;-83
2024/02/14 06:41:23;;;;;;;2.95;0.88;;;;;;;;;;4751160;30;20307;-86
2024/02/14 06:43:50;;;;;;;3.13;0.47;;;;;;;;;;4738239;30;20040;-85
2024/02/14 06:46:23;;;;;;;0.75;0.17;;;;;;;;;;4732319;30;20443;-85
2024/02/14 06:48:49;;;;;;;1.02;0.22;;;;;;;;;;4728580;30;20429;-84
2024/02/14 06:51:15;;;;;;;1.17;0.30;;;;;;;;;;4730576;30;20426;-85
2024/02/14 06:53:41;;;;;;;3.63;0.80;;;;;;;;;;4728550;30;20424;-86
2024/02/14 06:56:07;;;;;;;4.25;0.70;;;;;;;;;;4729476;30;20481;-86
2024/02/14 06:58:38;;;;;;;3.55;0.77;;;;;;;;;;4723622;30;20441;-85
2024/02/14 07:01:21;;;;;;;3.90;0.73;;;;;;;;;;4732013;30;20095;-87
2024/02/14 07:24:48;;;;;;;1.63;0.40;;;;;;;;;;4678212;30;20044;-86
2024/02/14 07:41:47;;;;;;;4.70;1.13;;;;;;;;;;4745365;30;20102;-86
2024/02/14 07:44:19;;;;;;;3.67;0.80;;;;;;;;;;4746202;30;20085;-86
2024/02/14 07:46:55;;;;;;;;;;;;;;;;;;;;;
2024/02/14 07:52:08;;;;;;;2.58;0.60;;;;;;;;;;4725843;30;20431;-86
2024/02/14 07:54:34;;;;;;;2.22;0.60;;;;;;;;;;4723453;30;20044;-83
2024/02/14 07:57:00;;;;;;;4.55;0.20;;;;;;;;;;4738942;30;20531;-83
2024/02/14 07:59:27;;;;;;;2.33;0.55;;;;;;;;;;4738103;30;20049;-83
2024/02/14 08:01:53;;;;;;;1.55;0.55;;;;;;;;;;4745567;30;20079;-80
2024/02/14 08:04:19;;;;;;;2.28;0.43;;;;;;;;;;4742076;30;20374;-83
2024/02/14 08:06:53;;;;;;;3.53;0.35;;;;;;;;;;4737487;30;20054;-86
2024/02/14 08:09:22;;;;;;;1.95;0.50;;;;;;;;;;4745932;30;20433;-86
2024/02/14 08:11:52;;;;;;;1.65;0.32;;;;;;;;;;4738906;30;20170;-85
2024/02/14 08:14:20;;;;;;;2.50;0.65;;;;;;;;;;4725524;30;20040;-87
2024/02/14 08:16:52;;;;;;;8.95;1.02;;;;;;;;;;4736169;30;20133;-86
2024/02/14 08:19:34;;;;;;;6.88;1.00;;;;;;;;;;4741493;30;20076;-86
2024/02/14 08:22:07;;;;;;;2.72;0.77;;;;;;;;;;4725892;30;20060;-86
2024/02/14 08:24:34;;;;;;;3.38;0.82;;;;;;;;;;4732190;30;20136;-86
2024/02/14 08:27:06;;;;;;;3.35;0.80;;;;;;;;;;4740531;30;20090;-86
2024/02/14 08:29:38;;;;;;;3.17;0.90;;;;;;;;;;4747815;30;20063;-86
2024/02/14 08:32:04;;;;;;;6.38;0.88;;;;;;;;;;4733238;30;20116;-85
2024/02/14 08:34:31;;;;;;;1.80;0.50;;;;;;;;;;4738711;30;20044;-85
2024/02/14 08:40:20;;;;;;;1.13;0.40;;;;;;;;;;4741778;30;20114;-83
2024/02/14 08:42:47;;;;;;;2.05;0.55;;;;;;;;;;4736869;30;20090;-84
2024/02/14 08:45:13;;;;;;;2.83;0.77;;;;;;;;;;4747524;30;20055;-83
2024/02/14 08:47:39;;;;;;;1.33;0.40;;;;;;;;;;4734373;30;20039;-84
2024/02/14 08:50:05;;;;;;;1.95;0.50;;;;;;;;;;4747869;30;20048;-83
2024/02/14 08:52:32;;;;;;;3.33;0.93;;;;;;;;;;4747973;30;20420;-84
2024/02/14 08:54:58;;;;;;;8.00;0.98;;;;;;;;;;4729067;30;20475;-84
2024/02/14 08:57:26;;;;;;;4.85;1.48;;;;;;;;;;4739464;30;20534;-83
2024/02/14 08:59:52;;;;;;;2.97;0.65;;;;;;;;;;4736516;30;20040;-84
2024/02/14 09:02:18;;;;;;;;;;;;;;;;;;4727042;30;20051;-81
2024/02/14 09:04:44;;;;;;;;;;;;;;;;;;4733543;30;19922;-81
2024/02/14 09:07:13;;;;;;;9.73;1.00;;;;;;;;;;4722913;30;19945;-81
2024/02/14 09:09:39;;;;;;;;;;;;;;;;;;4733012;30;20050;-84
2024/02/14 09:12:05;;;;;;;;;;;;;;;;;;4736937;30;19918;-82
2024/02/14 09:14:31;;;;;;;6.47;1.23;;;;;;;;;;4741420;30;19930;-81
2024/02/14 09:16:57;;;;;;;21.40;5.72;;;;;;;;;;4743874;30;20457;-81
2024/02/14 09:19:25;;;;;;;11.57;4.00;;;;;;;;;;4750240;30;20059;-81
2024/02/14 09:21:51;;;;;;;7.80;2.63;;;;;;;;;;4741615;30;20052;-81
2024/02/14 09:24:17;;;;;;;3.45;1.13;;;;;;;;;;4747381;30;20055;-80
2024/02/14 09:26:43;;;;;;;2.22;0.52;;;;;;;;;;4733284;30;20076;-82
2024/02/14 09:29:10;;;;;;;3.60;1.27;;;;;;;;;;4725091;30;20523;-83
2024/02/14 09:31:37;;;;;;;2.50;0.70;;;;;;;;;;4733024;30;20049;-83
2024/02/14 09:34:03;;;;;;;2.97;0.80;;;;;;;;;;4746859;30;20045;-81
2024/02/14 09:36:29;;;;;;;9.88;0.40;;;;;;;;;;4738340;30;20297;-83
2024/02/14 09:38:55;;;;;;;0.60;0.20;;;;;;;;;;4746422;30;20058;-83
2024/02/14 09:41:22;;;;;;;1.67;0.30;;;;;;;;;;4735454;30;20147;-83
2024/02/14 09:43:48;;;;;;;5.07;0.55;;;;;;;;;;4742744;30;20045;-83
2024/02/14 09:46:14;;;;;;;0.80;0.25;;;;;;;;;;4736982;30;20048;-83
2024/02/14 09:48:44;;;;;;;2.45;0.43;;;;;;;;;;4746133;30;20032;-83
2024/02/14 09:51:11;;;;;;;1.23;0.63;;;;;;;;;;4745695;30;20813;-81
2024/02/14 09:53:37;;;;;;;5.10;0.40;;;;;;;;;;4729182;30;20036;-82
2024/02/14 09:56:03;;;;;;;1.60;0.52;;;;;;;;;;4742607;30;20052;-82
2024/02/14 09:58:30;;;;;;;3.33;0.85;;;;;;;;;;4744346;30;20798;-83
2024/02/14 10:00:59;;;;;;;2.30;0.63;;;;;;;;;;4729909;30;20131;-82
2024/02/14 10:03:26;;;;;;;5.28;1.15;;;;;;;;;;4742467;30;20042;-82
2024/02/14 10:05:52;;;;;;;9.80;1.65;;;;;;;;;;4738719;30;20052;-82
2024/02/14 10:08:20;;;;;;;4.35;1.30;;;;;;;;;;4741472;30;20045;-83
2024/02/14 10:10:49;;;;;;;4.13;0.45;;;;;;;;;;4724942;30;20139;-85
2024/02/14 10:13:16;;;;;;;4.43;1.48;;;;;;;;;;4727050;30;20040;-85
2024/02/14 10:15:42;;;;;;;4.03;0.88;;;;;;;;;;4741011;30;20057;-83
2024/02/14 10:18:09;;;;;;;4.22;1.08;;;;;;;;;;4743836;30;20044;-84
2024/02/14 10:20:40;;;;;;;4.35;0.90;;;;;;;;;;4738002;30;20760;-84
2024/02/14 10:23:06;;;;;;;4.88;0.80;;;;;;;;;;4739608;30;20043;-83
2024/02/14 10:25:34;;;;;;;3.78;0.70;;;;;;;;;;4743399;30;20059;-82
2024/02/14 10:28:10;;;;;;;5.15;0.95;;;;;;;;;;4744781;30;20048;-84
2024/02/14 10:30:37;;;;;;;2.03;0.55;;;;;;;;;;4733568;30;20058;-84
2024/02/14 10:33:04;;;;;;;3.05;0.50;;;;;;;;;;4748176;30;20546;-83
2024/02/14 10:35:31;;;;;;;0.85;0.30;;;;;;;;;;4736569;30;20844;-84
2024/02/14 10:38:01;;;;;;;0.77;0.30;;;;;;;;;;4742757;30;20045;-83
2024/02/14 10:40:29;;;;;;;2.45;0.50;;;;;;;;;;4735824;30;20075;-83
2024/02/14 10:42:58;;;;;;;3.10;1.05;;;;;;;;;;4718869;30;20139;-83
2024/02/14 10:45:24;;;;;;;1.35;0.50;;;;;;;;;;4726103;30;20056;-84
2024/02/14 10:47:51;;;;;;;4.60;0.77;;;;;;;;;;4711100;30;20522;-82
2024/02/14 10:50:18;;;;;;;3.83;1.17;;;;;;;;;;4726350;30;20053;-81
2024/02/14 10:52:46;;;;;;;3.28;0.95;;;;;;;;;;4722786;30;20041;-82
2024/02/14 10:55:12;;;;;;;1.95;0.57;;;;;;;;;;4716904;30;20235;-82
2024/02/14 10:57:38;;;;;;;1.55;0.20;;;;;;;;;;4720929;30;20056;-80
2024/02/14 11:00:09;;;;;;;1.95;0.60;;;;;;;;;;4728267;30;20060;-81
2024/02/14 11:02:36;;;;;;;2.80;0.43;;;;;;;;;;4720200;30;20083;-84
2024/02/14 11:05:03;;;;;;;2.97;0.35;;;;;;;;;;4725269;30;20045;-84
2024/02/14 11:07:29;;;;;;;;;;;;;;;;;;4713019;30;20504;-85
2024/02/14 11:09:54;;;;;;;;;;;;;;;;;;4721531;30;19968;-84
2024/02/14 11:12:20;;;;;;;;;;;;;;;;;;4724131;30;20097;-87
2024/02/14 11:14:46;;;;;;;;;;;;;;;;;;4719442;30;19918;-82
2024/02/14 11:17:13;;;;;;;;;;;;;;;;;;4725529;30;19963;-84
2024/02/14 11:19:40;;;;;;;;;;;;;;;;;;4724028;30;20027;-85
2024/02/14 11:22:06;;;;;;;;;;;;;;;;;;4713901;30;22140;-82
2024/02/14 11:24:34;;;;;;;;;;;;;;;;;;4731675;30;19919;-82
2024/02/14 11:27:00;;;;;;;;;;;;;;;;;;4723156;30;19925;-82
2024/02/14 11:29:26;;;;;;;;;;;;;;;;;;4720338;30;19919;-83
2024/02/14 11:31:52;;;;;;;;;;;;;;;;;;4726948;30;19925;-83
2024/02/14 11:34:18;;;;;;;;;;;;;;;;;;4719046;30;20009;-83
2024/02/14 11:36:44;;;;;;;;;;;;;;;;;;4726558;30;20001;-83
2024/02/14 11:39:11;;;;;;;;;;;;;;;;;;4719806;30;19991;-83
2024/02/14 11:41:38;;;;;;;;;;;;;;;;;;4729959;30;19952;-83
2024/02/14 11:44:03;;;;;;;;;;;;;;;;;;4729522;30;19922;-83
2024/02/14 11:46:29;;;;;;;;;;;;;;;;;;4715539;30;19965;-82
2024/02/14 11:48:56;;;;;;;;;;;;;;;;;;4732084;30;19919;-83
2024/02/14 11:51:22;;;;;;;;;;;;;;;;;;4706327;30;20009;-84
2024/02/14 11:53:48;;;;;;;;;;;;;;;;;;4726124;30;20353;-83
2024/02/14 11:56:15;;;;;;;;;;;;;;;;;;4716322;30;19915;-84
2024/02/14 12:04:10;;;;;;;;;;;;;;;;;;4727295;30;19930;-83
2024/02/14 12:12:24;;;;;;;;;;;;;;;;;;4727953;30;19922;-84
2024/02/14 12:14:50;;;;;;;;;;;;;;;;;;4716227;30;19925;-84
2024/02/14 12:49:35;;;;;;;3.67;0.65;;;;;;;;;;4762943;30;20086;-82
2024/02/14 13:01:33;;;;;;;;;;;;;;;;;;;;;
2024/02/14 13:04:38;;;;;;;;;;;;;;;;;;;;;
2024/02/14 13:06:56;;;;;;;1.35;0.45;;;;;;;;;;4748954;30;20236;-84
2024/02/14 13:18:46;;;;;;;1.75;0.45;;;;;;;;;;4772080;24;20129;-86
2024/02/14 13:21:14;;;;;;;5.90;0.20;;;;;;;;;;4759355;24;20089;-84
2024/02/14 13:23:40;;;;;;;1.98;0.20;;;;;;;;;;4776161;24;20144;-80
2024/02/14 13:26:07;;;;;;;1.38;0.10;;;;;;;;;;4744418;30;20155;-81
2024/02/14 13:28:33;;;;;;;0.90;0.20;;;;;;;;;;4747359;30;20032;-81
2024/02/14 13:30:59;;;;;;;2.58;0.17;;;;;;;;;;4751395;30;20058;-81
2024/02/14 13:33:25;;;;;;;1.25;0.10;;;;;;;;;;4750177;30;20044;-81
2024/02/14 13:35:54;;;;;;;2.38;0.10;;;;;;;;;;4750486;30;20060;-83
2024/02/14 13:38:28;;;;;;;0.20;0.10;;;;;;;;;;4731404;30;20488;-82
2024/02/14 13:40:54;;;;;;;0.63;0.10;;;;;;;;;;4743517;30;20052;-82
2024/02/14 13:43:23;;;;;;;1.20;0.55;;;;;;;;;;4739325;30;20052;-83
2024/02/14 13:45:50;;;;;;;2.08;0.20;;;;;;;;;;4738839;30;20053;-82
2024/02/14 13:48:16;;;;;;;1.02;0.20;;;;;;;;;;4744974;30;20043;-82
2024/02/14 13:50:42;;;;;;;2.15;0.40;;;;;;;;;;4741402;30;20050;-82
2024/02/14 13:53:08;;;;;;;1.27;0.10;;;;;;;;;;4748804;30;20935;-83
2024/02/14 13:55:34;;;;;;;0.38;0.20;;;;;;;;;;4744377;30;20127;-84
2024/02/14 13:58:16;;;;;;;4.32;0.30;;;;;;;;;;4747963;30;20051;-84
2024/02/14 14:00:45;;;;;;;0.90;0.32;;;;;;;;;;4725517;30;20053;-83
2024/02/14 14:03:11;;;;;;;1.88;0.28;;;;;;;;;;4734917;30;20083;-83
2024/02/14 14:05:37;;;;;;;1.10;0.40;;;;;;;;;;4751260;30;20051;-83
2024/02/14 14:08:03;;;;;;;0.32;0.20;;;;;;;;;;4732942;30;20127;-82
2024/02/14 14:10:29;;;;;;;1.15;0.20;;;;;;;;;;4750651;30;20044;-82
2024/02/14 14:12:56;;;;;;;1.90;0.30;;;;;;;;;;4750428;30;20392;-82
2024/02/14 14:15:22;;;;;;;1.67;0.35;;;;;;;;;;4750626;30;20056;-82
2024/02/14 14:17:48;;;;;;;0.80;0.10;;;;;;;;;;4739021;30;20485;-83
2024/02/14 14:20:14;;;;;;;5.03;0.20;;;;;;;;;;4742109;30;20040;-83
2024/02/14 14:22:40;;;;;;;1.45;0.85;;;;;;;;;;4734270;30;20091;-83
2024/02/14 14:25:07;;;;;;;0.22;0.20;;;;;;;;;;4744922;30;20138;-83
2024/02/14 14:27:34;;;;;;;1.45;0.30;;;;;;;;;;4745423;30;20682;-82
2024/02/14 14:30:00;;;;;;;1.48;0.30;;;;;;;;;;4741432;30;20107;-82
2024/02/14 14:32:26;;;;;;;2.00;0.10;;;;;;;;;;4750765;30;20080;-83
2024/02/14 14:34:52;;;;;;;2.72;0.20;;;;;;;;;;4746639;30;20500;-82
2024/02/14 14:37:18;;;;;;;1.73;0.30;;;;;;;;;;4747974;30;20052;-82
2024/02/14 14:39:44;;;;;;;2.17;0.40;;;;;;;;;;4743482;30;20056;-82
2024/02/14 14:42:10;;;;;;;0.90;0.25;;;;;;;;;;4742841;30;20403;-83
2024/02/14 14:44:36;;;;;;;0.80;0.20;;;;;;;;;;4733717;30;20511;-83
2024/02/14 14:47:03;;;;;;;0.52;0.10;;;;;;;;;;4740956;30;20278;-84
2024/02/14 14:49:30;;;;;;;1.40;0.17;;;;;;;;;;4726776;30;20040;-85
2024/02/14 14:51:57;;;;;;;4.32;0.68;;;;;;;;;;4741579;30;20045;-83
2024/02/14 14:54:23;;;;;;;1.42;0.40;;;;;;;;;;4747684;30;20050;-83
2024/02/14 14:56:53;;;;;;;2.35;0.32;;;;;;;;;;4738401;30;20115;-83
2024/02/14 14:59:19;;;;;;;4.38;1.95;;;;;;;;;;4748916;30;20079;-82
2024/02/14 15:01:45;;;;;;;1.55;0.40;;;;;;;;;;4739090;30;20097;-84
2024/02/14 15:04:11;;;;;;;1.85;0.98;;;;;;;;;;4729656;30;20586;-82
2024/02/14 15:06:37;;;;;;;0.50;0.20;;;;;;;;;;4746348;30;20071;-83
2024/02/14 15:09:03;;;;;;;0.82;0.20;;;;;;;;;;4733758;30;20095;-83
2024/02/14 15:11:29;;;;;;;1.42;0.28;;;;;;;;;;4730333;30;20051;-83
2024/02/14 15:13:56;;;;;;;2.20;0.28;;;;;;;;;;4744700;30;20051;-83
2024/02/14 15:16:24;;;;;;;0.65;0.17;;;;;;;;;;4744008;30;20075;-83
2024/02/14 15:18:51;;;;;;;0.90;0.40;;;;;;;;;;4744451;30;20045;-82
2024/02/14 15:21:16;;;;;;;1.55;0.43;;;;;;;;;;4744836;30;20060;-83
2024/02/14 15:23:44;;;;;;;1.80;0.35;;;;;;;;;;4747751;30;20446;-83
2024/02/14 15:26:12;;;;;;;2.63;0.80;;;;;;;;;;4734216;30;20124;-82
2024/02/14 15:28:44;;;;;;;2.85;0.60;;;;;;;;;;4721226;30;20426;-82
2024/02/14 15:33:55;;;;;;;1.55;0.55;;;;;;;;;;4738714;30;20048;-82
2024/02/14 15:36:22;;;;;;;2.17;0.60;;;;;;;;;;4731202;30;20048;-82
2024/02/14 15:38:48;;;;;;;5.22;1.15;;;;;;;;;;4749744;30;20052;-82
2024/02/14 15:41:14;;;;;;;9.73;1.52;;;;;;;;;;4748811;30;20071;-81
2024/02/14 15:43:44;;;;;;;6.13;1.63;;;;;;;;;;4740764;30;20056;-81
2024/02/14 15:46:11;;;;;;;8.02;2.30;;;;;;;;;;4737085;30;20040;-84
2024/02/14 15:48:37;;;;;;;5.22;1.42;;;;;;;;;;4731352;30;20517;-81
2024/02/14 15:51:04;;;;;;;7.53;1.90;;;;;;;;;;4746908;30;20594;-81
2024/02/14 15:53:31;;;;;;;4.32;0.70;;;;;;;;;;4744891;30;20052;-83
2024/02/14 15:55:57;;;;;;;4.45;0.70;;;;;;;;;;4742720;30;20076;-81
2024/02/14 15:58:26;;;;;;;2.40;1.10;;;;;;;;;;4747199;30;20052;-82
2024/02/14 16:00:52;;;;;;;2.47;1.27;;;;;;;;;;4748345;30;20056;-81
2024/02/14 16:03:18;;;;;;;3.13;0.50;;;;;;;;;;4739394;30;20396;-81
2024/02/14 16:05:44;;;;;;;1.80;0.68;;;;;;;;;;4745969;30;20052;-81
2024/02/14 16:08:17;;;;;;;3.20;0.70;;;;;;;;;;4745195;30;20044;-81
2024/02/14 16:10:44;;;;;;;5.45;0.80;;;;;;;;;;4746325;30;20052;-82
2024/02/14 16:13:10;;;;;;;3.30;0.90;;;;;;;;;;4745072;30;20048;-82
2024/02/14 16:15:37;;;;;;;7.68;1.85;;;;;;;;;;4730340;30;20080;-83
2024/02/14 16:18:03;;;;;;;3.85;1.20;;;;;;;;;;4741788;30;20097;-82
2024/02/14 16:20:29;;;;;;;6.45;1.10;;;;;;;;;;4751955;30;20127;-82
2024/02/14 16:22:55;;;;;;;1.35;0.50;;;;;;;;;;4742584;30;20166;-81
2024/02/14 16:25:22;;;;;;;2.67;0.85;;;;;;;;;;4748501;30;20063;-82
2024/02/14 16:27:48;;;;;;;6.10;0.85;;;;;;;;;;4748078;30;20050;-82
2024/02/14 16:30:15;;;;;;;9.82;0.93;;;;;;;;;;4746734;30;20201;-83
2024/02/14 16:32:41;;;;;;;3.38;1.30;;;;;;;;;;4744455;30;20040;-82
2024/02/14 16:35:07;;;;;;;3.42;1.05;;;;;;;;;;4749817;30;20056;-82
2024/02/14 16:37:33;;;;;;;5.07;0.90;;;;;;;;;;4745544;30;20145;-82
2024/02/14 16:40:00;;;;;;;;;;;;;;;;;;4736886;30;20049;-81
2024/02/14 16:42:26;;;;;;;5.28;0.82;;;;;;;;;;4738274;30;19931;-82